createdAt,value
2022-10-22T00:00:56.761Z,11.43
2022-10-22T00:03:24.527Z,9.98
2022-10-22T00:05:52.222Z,9.98
2022-10-22T00:08:20.121Z,9.95
2022-10-22T00:10:47.988Z,11.30
2022-10-22T00:13:17.492Z,10.15
2022-10-22T00:15:45.222Z,8.57
2022-10-22T00:18:12.926Z,14.77
2022-10-22T00:20:40.720Z,9.23
2022-10-22T00:23:08.453Z,9.85
2022-10-22T00:25:37.102Z,12.98
2022-10-22T00:28:05.116Z,11.05
2022-10-22T00:30:34.193Z,13.77
2022-10-22T00:33:01.901Z,10.80
2022-10-22T00:35:29.662Z,10.57
2022-10-22T00:37:57.395Z,7.85
2022-10-22T00:40:25.111Z,13.02
2022-10-22T00:42:52.922Z,9.75
2022-10-22T00:45:23.881Z,12.10
2022-10-22T00:48:00.546Z,9.80
2022-10-22T00:50:32.380Z,8.40
2022-10-22T00:53:02.310Z,8.85
2022-10-22T00:55:31.322Z,10.35
2022-10-22T00:57:59.498Z,9.52
2022-10-22T01:00:27.635Z,10.02
2022-10-22T01:02:58.853Z,11.45
2022-10-22T01:05:30.376Z,10.18
2022-10-22T01:07:58.274Z,8.82
2022-10-22T01:10:44.170Z,10.45
2022-10-22T01:13:23.526Z,10.70
2022-10-22T01:16:00.354Z,15.57
2022-10-22T01:18:37.962Z,10.63
2022-10-22T01:21:15.175Z,16.15
2022-10-22T01:24:09.578Z,10.90
2022-10-22T01:26:51.449Z,11.13
2022-10-22T01:29:26.753Z,10.57
2022-10-22T01:31:57.932Z,8.63
2022-10-22T01:34:28.224Z,10.10
2022-10-22T01:36:57.649Z,13.05
2022-10-22T01:39:28.224Z,10.02
2022-10-22T01:41:56.579Z,9.05
2022-10-22T01:44:30.734Z,9.63
2022-10-22T01:47:08.373Z,9.30
2022-10-22T01:49:52.042Z,11.63
2022-10-22T01:52:30.150Z,9.05
2022-10-22T01:55:08.808Z,10.48
2022-10-22T01:57:44.909Z,10.05
2022-10-22T02:00:18.187Z,9.98
2022-10-22T02:02:53.919Z,9.93
2022-10-22T02:05:26.233Z,11.82
2022-10-22T02:07:56.462Z,10.02
2022-10-22T02:10:25.661Z,14.40
2022-10-22T02:12:55.719Z,10.38
2022-10-22T02:15:28.370Z,10.25
2022-10-22T02:17:58.742Z,9.98
2022-10-22T02:20:29.289Z,10.15
2022-10-22T02:22:57.824Z,13.73
2022-10-22T02:25:29.349Z,10.23
2022-10-22T02:28:05.174Z,12.05
2022-10-22T02:30:36.788Z,8.65
2022-10-22T02:33:09.769Z,12.18
2022-10-22T02:35:39.838Z,10.38
2022-10-22T02:38:08.739Z,19.85
2022-10-22T02:40:36.595Z,10.60
2022-10-22T02:43:06.311Z,11.07
2022-10-22T02:45:35.864Z,11.88
2022-10-22T02:48:03.912Z,11.23
2022-10-22T02:50:31.718Z,12.18
2022-10-22T02:52:59.413Z,13.05
2022-10-22T02:55:27.175Z,10.88
2022-10-22T02:57:54.916Z,11.18
2022-10-22T03:00:23.127Z,11.57
2022-10-22T03:02:52.215Z,9.25
2022-10-22T03:05:19.968Z,14.20
2022-10-22T03:07:47.723Z,11.23
2022-10-22T03:10:15.610Z,12.00
2022-10-22T03:12:43.300Z,14.68
2022-10-22T03:15:11.609Z,11.75
2022-10-22T03:17:39.490Z,10.65
2022-10-22T03:20:09.870Z,10.27
2022-10-22T03:22:40.507Z,10.35
2022-10-22T03:25:12.219Z,11.23
2022-10-22T03:27:42.276Z,12.20
2022-10-22T03:30:11.611Z,11.50
2022-10-22T03:32:39.336Z,11.90
2022-10-22T03:35:09.166Z,9.88
2022-10-22T03:37:38.232Z,11.85
2022-10-22T03:40:08.537Z,11.65
2022-10-22T03:42:36.554Z,10.00
2022-10-22T03:45:05.117Z,11.55
2022-10-22T03:47:32.886Z,12.52
2022-10-22T03:50:00.598Z,11.13
2022-10-22T03:52:29.727Z,11.57
2022-10-22T03:54:57.698Z,11.50
2022-10-22T03:57:25.470Z,12.82
2022-10-22T03:59:53.181Z,12.18
2022-10-22T04:02:21.630Z,12.35
2022-10-22T04:04:49.370Z,11.65
2022-10-22T04:07:17.088Z,12.32
2022-10-22T04:09:46.182Z,13.15
2022-10-22T04:12:13.893Z,9.98
2022-10-22T04:14:41.631Z,11.20
2022-10-22T04:17:09.401Z,10.93
2022-10-22T04:19:37.185Z,13.63
2022-10-22T04:22:04.892Z,10.23
2022-10-22T04:24:33.420Z,12.10
2022-10-22T04:27:02.467Z,12.05
2022-10-22T04:29:30.181Z,13.35
2022-10-22T04:31:57.893Z,12.85
2022-10-22T04:34:28.584Z,10.88
2022-10-22T04:36:56.590Z,10.43
2022-10-22T04:39:24.368Z,14.68
2022-10-22T04:41:52.098Z,10.07
2022-10-22T04:44:21.131Z,12.52
2022-10-22T04:46:48.998Z,11.60
2022-10-22T04:49:16.761Z,13.10
2022-10-22T04:51:44.488Z,9.90
2022-10-22T04:54:12.242Z,9.73
2022-10-22T04:56:40.913Z,14.73
2022-10-22T04:59:10.155Z,15.02
2022-10-22T05:01:42.843Z,12.75
2022-10-22T05:04:13.473Z,13.25
2022-10-22T05:06:41.235Z,11.27
2022-10-22T05:09:13.823Z,11.18
2022-10-22T05:11:45.503Z,9.40
2022-10-22T05:14:14.020Z,13.65
2022-10-22T05:16:43.150Z,13.18
2022-10-22T05:19:17.860Z,10.85
2022-10-22T05:21:45.767Z,12.70
2022-10-22T05:24:14.144Z,11.13
2022-10-22T05:26:42.122Z,11.60
2022-10-22T05:29:09.857Z,12.13
2022-10-22T05:31:38.831Z,11.02
2022-10-22T05:34:07.954Z,13.30
2022-10-22T05:36:35.658Z,12.00
2022-10-22T05:39:03.670Z,11.85
2022-10-22T05:41:31.869Z,16.42
2022-10-22T05:44:00.926Z,11.32
2022-10-22T05:46:30.816Z,11.07
2022-10-22T05:49:00.107Z,9.52
2022-10-22T05:51:31.898Z,14.13
2022-10-22T05:54:01.431Z,10.68
2022-10-22T05:56:31.824Z,11.30
2022-10-22T05:59:00.314Z,9.98
2022-10-22T06:01:30.469Z,11.10
2022-10-22T06:03:59.572Z,11.68
2022-10-22T06:06:32.948Z,13.13
2022-10-22T06:09:03.368Z,14.02
2022-10-22T06:11:34.266Z,12.68
2022-10-22T06:14:03.571Z,11.25
2022-10-22T06:16:31.954Z,14.35
2022-10-22T06:19:01.785Z,9.07
2022-10-22T06:21:32.134Z,10.00
2022-10-22T06:24:01.405Z,10.77
2022-10-22T06:26:29.814Z,12.40
2022-10-22T06:28:58.125Z,11.52
2022-10-22T06:31:27.411Z,14.50
2022-10-22T06:33:55.445Z,11.90
2022-10-22T06:36:25.041Z,12.52
2022-10-22T06:38:55.696Z,11.18
2022-10-22T06:41:27.148Z,11.80
2022-10-22T06:43:58.219Z,12.55
2022-10-22T06:46:26.759Z,11.32
2022-10-22T06:48:56.433Z,19.40
2022-10-22T06:51:24.571Z,12.13
2022-10-22T06:53:52.293Z,14.77
2022-10-22T06:56:23.023Z,11.48
2022-10-22T06:58:51.187Z,10.30
2022-10-22T07:01:21.370Z,13.18
2022-10-22T07:03:51.509Z,11.98
2022-10-22T07:06:20.467Z,12.38
2022-10-22T07:08:48.374Z,10.85
2022-10-22T07:11:18.247Z,10.73
2022-10-22T07:13:47.641Z,11.65
2022-10-22T07:16:16.410Z,9.18
2022-10-22T07:18:45.077Z,15.80
2022-10-22T07:21:14.437Z,11.15
2022-10-22T07:23:42.523Z,12.52
2022-10-22T07:26:12.786Z,10.50
2022-10-22T07:28:41.201Z,9.88
2022-10-22T07:31:12.689Z,14.25
2022-10-22T07:33:41.162Z,9.52
2022-10-22T07:36:12.020Z,10.50
2022-10-22T07:38:39.777Z,9.30
2022-10-22T07:41:07.565Z,9.82
2022-10-22T07:43:35.487Z,10.45
2022-10-22T07:46:03.366Z,8.60
2022-10-22T07:48:32.465Z,8.40
2022-10-22T07:51:00.243Z,9.38
2022-10-22T07:53:28.064Z,8.65
2022-10-22T07:55:56.738Z,11.00
2022-10-22T07:58:25.244Z,7.65
2022-10-22T08:00:56.522Z,11.75
2022-10-22T08:03:24.481Z,8.85
2022-10-22T08:05:54.817Z,7.40
2022-10-22T08:08:25.868Z,8.73
2022-10-22T08:10:58.577Z,9.18
2022-10-22T08:13:27.425Z,12.10
2022-10-22T08:15:57.499Z,10.07
2022-10-22T08:18:25.661Z,8.75
2022-10-22T08:20:55.019Z,9.43
2022-10-22T08:23:26.025Z,10.75
2022-10-22T08:25:56.880Z,10.27
2022-10-22T08:28:24.780Z,10.27
2022-10-22T08:30:52.765Z,8.43
2022-10-22T08:33:20.784Z,11.48
2022-10-22T08:35:50.322Z,8.27
2022-10-22T08:38:20.284Z,11.10
2022-10-22T08:40:51.158Z,16.23
2022-10-22T08:43:59.234Z,9.68
2022-10-22T08:46:40.073Z,8.55
2022-10-22T08:49:18.408Z,13.13
2022-10-22T08:51:46.387Z,9.60
2022-10-22T08:54:27.520Z,11.30
2022-10-22T08:57:17.325Z,6.72
2022-10-22T08:59:48.823Z,8.23
2022-10-22T09:02:29.118Z,7.85
2022-10-22T09:05:10.036Z,8.45
2022-10-22T09:07:42.922Z,10.20
2022-10-22T09:10:12.881Z,8.27
2022-10-22T09:12:40.786Z,8.68
2022-10-22T09:15:14.294Z,9.50
2022-10-22T09:17:54.168Z,7.05
2022-10-22T09:20:29.745Z,7.93
2022-10-22T09:23:06.221Z,10.82
2022-10-22T09:25:37.887Z,9.27
2022-10-22T09:28:05.955Z,7.85
2022-10-22T09:30:37.875Z,10.15
2022-10-22T09:33:14.814Z,11.00
2022-10-22T09:38:17.722Z,10.35
2022-10-22T09:40:49.788Z,5.93
2022-10-22T09:43:18.134Z,9.18
2022-10-22T09:45:47.276Z,13.95
2022-10-22T09:48:26.401Z,9.32
2022-10-22T09:51:00.232Z,11.57
2022-10-22T09:53:31.585Z,9.70
2022-10-22T09:56:02.628Z,9.93
2022-10-22T10:01:00.309Z,9.00
2022-10-22T10:03:29.781Z,8.77
2022-10-22T10:06:03.273Z,12.73
2022-10-22T10:08:34.411Z,9.98
2022-10-22T10:11:11.869Z,11.18
2022-10-22T10:13:48.459Z,11.10
2022-10-22T10:16:32.906Z,8.05
2022-10-22T10:19:14.773Z,11.32
2022-10-22T10:21:50.449Z,11.43
2022-10-22T10:24:23.498Z,8.07
2022-10-22T10:26:59.516Z,9.45
2022-10-22T10:35:04.723Z,7.90
2022-10-22T10:37:41.709Z,8.38
2022-10-22T10:40:24.020Z,8.20
2022-10-22T10:43:01.135Z,10.80
2022-10-22T10:45:38.082Z,10.85
2022-10-22T10:50:52.193Z,6.53
2022-10-22T10:53:35.621Z,6.43
2022-10-22T10:56:15.732Z,9.10
2022-10-22T10:58:53.606Z,7.15
2022-10-22T11:01:28.642Z,8.55
2022-10-22T11:04:18.766Z,7.05
2022-10-22T11:06:47.628Z,9.05
2022-10-22T11:09:26.785Z,6.00
2022-10-22T11:11:59.250Z,9.80
2022-10-22T11:14:33.628Z,6.80
2022-10-22T11:17:07.149Z,9.02
2022-10-22T11:19:50.654Z,7.80
2022-10-22T11:22:27.029Z,7.47
2022-10-22T11:25:01.124Z,8.73
2022-10-22T11:27:37.103Z,11.10
2022-10-22T11:30:12.903Z,6.82
2022-10-22T11:32:42.879Z,8.60
2022-10-22T11:35:17.092Z,8.88
2022-10-22T11:37:47.827Z,7.60
2022-10-22T11:40:19.770Z,8.82
2022-10-22T11:42:51.057Z,8.68
2022-10-22T11:45:31.641Z,10.45
2022-10-22T11:48:05.895Z,7.60
2022-10-22T11:50:48.075Z,9.70
2022-10-22T11:53:21.185Z,9.93
2022-10-22T11:55:51.519Z,6.45
2022-10-22T11:58:43.741Z,7.50
2022-10-22T12:01:28.346Z,7.70
2022-10-22T12:04:18.852Z,11.07
2022-10-22T12:07:01.343Z,10.32
2022-10-22T12:09:32.764Z,9.43
2022-10-22T12:12:13.241Z,7.55
2022-10-22T12:14:53.592Z,10.88
2022-10-22T12:17:23.609Z,7.38
2022-10-22T12:20:02.071Z,10.73
2022-10-22T12:22:32.671Z,8.85
2022-10-22T12:25:03.127Z,10.52
2022-10-22T12:27:36.196Z,8.82
2022-10-22T12:30:18.877Z,13.95
2022-10-22T12:32:47.940Z,9.45
2022-10-22T12:35:18.855Z,8.90
2022-10-22T12:40:20.761Z,10.15
2022-10-22T12:42:50.982Z,9.38
2022-10-22T12:45:19.626Z,6.22
2022-10-22T12:47:49.374Z,7.63
2022-10-22T12:50:20.130Z,9.95
2022-10-22T12:52:48.422Z,10.85
2022-10-22T12:55:17.775Z,9.50
2022-10-22T12:57:48.310Z,8.18
2022-10-22T13:00:26.125Z,7.90
2022-10-22T13:02:58.453Z,9.25
2022-10-22T13:05:28.420Z,10.32
2022-10-22T13:08:04.780Z,7.35
2022-10-22T13:10:35.038Z,9.38
2022-10-22T13:13:06.705Z,11.05
2022-10-22T13:15:38.495Z,10.35
2022-10-22T13:18:17.000Z,7.47
2022-10-22T13:20:53.376Z,7.30
2022-10-22T13:23:23.878Z,8.38
2022-10-22T13:26:00.125Z,9.50
2022-10-22T13:28:29.531Z,8.05
2022-10-22T13:30:59.626Z,10.38
2022-10-22T13:33:34.618Z,11.02
2022-10-22T13:36:02.356Z,10.55
2022-10-22T13:38:30.888Z,11.48
2022-10-22T13:40:59.260Z,9.48
2022-10-22T13:43:27.317Z,8.82
2022-10-22T13:45:58.419Z,7.18
2022-10-22T13:48:29.993Z,11.60
2022-10-22T13:50:57.766Z,12.57
2022-10-22T13:53:27.710Z,10.63
2022-10-22T13:55:55.548Z,10.27
2022-10-22T13:58:25.284Z,10.52
2022-10-22T14:00:55.722Z,10.48
2022-10-22T14:03:27.521Z,10.80
2022-10-22T14:05:57.087Z,9.90
2022-10-22T14:08:26.425Z,11.93
2022-10-22T14:10:54.445Z,9.07
2022-10-22T14:13:22.653Z,10.73
2022-10-22T14:15:52.500Z,9.65
2022-10-22T14:18:25.526Z,11.68
2022-10-22T14:20:55.069Z,10.55
2022-10-22T14:23:26.531Z,8.27
2022-10-22T14:25:54.530Z,11.63
2022-10-22T14:28:22.342Z,12.57
2022-10-22T14:30:50.932Z,9.73
2022-10-22T14:33:28.763Z,9.48
2022-10-22T14:35:59.836Z,11.60
2022-10-22T14:38:29.228Z,11.25
2022-10-22T14:40:58.066Z,9.40
2022-10-22T14:43:28.719Z,11.00
2022-10-22T14:45:56.855Z,11.05
2022-10-22T14:48:24.761Z,13.57
2022-10-22T14:50:52.679Z,12.00
2022-10-22T14:53:20.576Z,12.55
2022-10-22T14:55:51.490Z,11.40
2022-10-22T15:00:46.812Z,8.98
2022-10-22T15:03:14.677Z,9.45
2022-10-22T15:05:44.323Z,10.35
2022-10-22T15:08:13.373Z,9.48
2022-10-22T15:10:41.481Z,11.95
2022-10-22T15:13:10.626Z,11.88
2022-10-22T15:15:40.965Z,11.73
2022-10-22T15:18:08.943Z,10.57
2022-10-22T15:20:36.668Z,10.20
2022-10-22T15:23:04.588Z,9.20
2022-10-22T15:25:32.341Z,10.85
2022-10-22T15:28:02.014Z,12.65
2022-10-22T15:30:33.858Z,8.98
2022-10-22T15:33:02.811Z,10.15
2022-10-22T15:35:30.575Z,10.27
2022-10-22T15:37:58.313Z,10.88
2022-10-22T15:40:26.052Z,11.05
2022-10-22T15:42:53.821Z,10.88
2022-10-22T15:45:22.633Z,11.82
2022-10-22T15:47:51.693Z,12.20
2022-10-22T15:50:19.444Z,9.65
2022-10-22T15:52:47.179Z,11.25
2022-10-22T15:55:15.411Z,9.05
2022-10-22T15:57:43.399Z,13.30
2022-10-22T16:00:12.748Z,9.57
2022-10-22T16:02:40.541Z,11.85
2022-10-22T16:05:10.877Z,9.45
2022-10-22T16:07:38.991Z,11.43
2022-10-22T16:10:08.052Z,14.88
2022-10-22T16:12:36.726Z,11.20
2022-10-22T16:15:04.998Z,12.38
2022-10-22T16:17:32.718Z,9.50
2022-10-22T16:20:00.537Z,19.80
2022-10-22T16:22:29.682Z,12.30
2022-10-22T16:24:57.422Z,10.98
2022-10-22T16:27:25.160Z,9.38
2022-10-22T16:29:52.982Z,10.40
2022-10-22T16:32:20.749Z,10.02
2022-10-22T16:34:48.462Z,10.00
2022-10-22T16:37:16.213Z,11.40
2022-10-22T16:39:45.265Z,10.38
2022-10-22T16:42:13.007Z,14.07
2022-10-22T16:44:40.708Z,13.20
2022-10-22T16:47:08.501Z,16.48
2022-10-22T16:49:36.180Z,15.02
2022-10-22T16:52:04.040Z,9.40
2022-10-22T16:54:31.901Z,12.43
2022-10-22T16:57:01.026Z,25.10
2022-10-22T16:59:28.809Z,12.70
2022-10-22T17:01:57.396Z,14.52
2022-10-22T17:04:25.153Z,11.98
2022-10-22T17:06:52.869Z,13.73
2022-10-22T17:09:20.804Z,12.30
2022-10-22T17:11:48.658Z,10.15
2022-10-22T17:14:17.777Z,9.50
2022-10-22T17:16:48.801Z,12.57
2022-10-22T17:19:16.654Z,9.88
2022-10-22T17:21:44.457Z,9.88
2022-10-22T17:24:12.201Z,10.00
2022-10-22T17:26:39.942Z,10.90
2022-10-22T17:29:07.926Z,8.95
2022-10-22T17:31:37.969Z,9.35
2022-10-22T17:34:06.995Z,7.82
2022-10-22T17:36:36.165Z,11.52
2022-10-22T17:39:06.852Z,17.65
2022-10-22T17:41:36.758Z,14.48
2022-10-22T17:44:06.951Z,17.27
2022-10-22T17:46:34.701Z,15.57
2022-10-22T17:49:07.509Z,18.00
2022-10-22T17:51:35.410Z,20.50
2022-10-22T17:54:05.969Z,16.15
2022-10-22T17:56:37.012Z,14.10
2022-10-22T17:59:04.773Z,30.35
2022-10-22T18:01:35.644Z,24.73
2022-10-22T18:06:35.580Z,13.93
2022-10-22T18:09:05.733Z,20.98
2022-10-22T18:11:36.386Z,18.05
2022-10-22T18:14:04.985Z,17.52
2022-10-22T18:16:32.815Z,21.52
2022-10-22T18:19:01.152Z,19.35
2022-10-22T18:21:32.777Z,18.85
2022-10-22T18:24:00.555Z,15.57
2022-10-22T18:26:28.506Z,11.75
2022-10-22T18:28:56.302Z,12.80
2022-10-22T18:31:26.012Z,13.57
2022-10-22T18:36:28.076Z,14.13
2022-10-22T18:38:59.127Z,11.88
2022-10-22T18:41:27.255Z,15.68
2022-10-22T18:43:57.128Z,10.35
2022-10-22T18:46:25.203Z,10.27
2022-10-22T18:48:53.925Z,14.60
2022-10-22T18:51:22.054Z,10.55
2022-10-22T18:54:04.555Z,15.25
2022-10-22T18:56:41.493Z,16.42
2022-10-22T18:59:16.106Z,13.35
2022-10-22T19:01:43.898Z,15.10
2022-10-22T19:04:12.714Z,13.45
2022-10-22T19:06:45.065Z,11.15
2022-10-22T19:09:13.700Z,13.07
2022-10-22T20:57:07.037Z,16.77
2022-10-22T20:59:35.298Z,14.88
2022-10-22T21:02:04.882Z,15.35
2022-10-22T21:04:32.637Z,16.95
2022-10-22T21:07:00.393Z,20.23
2022-10-22T21:09:28.181Z,13.77
2022-10-22T21:11:56.906Z,16.70
2022-10-22T21:14:26.069Z,16.63
2022-10-22T21:16:53.779Z,13.65
2022-10-22T21:19:22.482Z,18.30
2022-10-22T21:21:50.444Z,16.77
2022-10-22T21:24:18.376Z,14.27
2022-10-22T21:26:46.150Z,21.77
2022-10-22T21:29:14.404Z,15.43
2022-10-22T21:31:43.470Z,14.27
2022-10-22T21:34:12.942Z,14.15
2022-10-22T21:36:40.771Z,18.65
2022-10-22T21:39:08.555Z,17.90
2022-10-22T21:41:37.746Z,22.13
2022-10-22T21:44:05.930Z,20.08
2022-10-22T21:46:33.693Z,19.83
2022-10-22T21:49:04.487Z,12.40
2022-10-22T21:51:35.074Z,15.77
2022-10-22T21:54:02.845Z,14.52
2022-10-22T21:56:33.120Z,14.98
2022-10-22T21:59:00.933Z,15.98
2022-10-22T22:01:29.267Z,14.25
2022-10-22T22:03:57.117Z,15.98
2022-10-22T22:06:30.690Z,15.05
2022-10-22T22:09:00.793Z,15.20
2022-10-22T22:11:29.690Z,15.93
2022-10-22T22:13:58.696Z,17.35
2022-10-22T22:16:29.249Z,20.42
2022-10-22T22:18:57.957Z,17.20
2022-10-22T22:21:28.027Z,16.73
2022-10-22T22:23:55.811Z,16.25
2022-10-22T22:26:28.709Z,16.90
2022-10-22T22:28:58.243Z,15.57
2022-10-22T22:31:28.529Z,13.40
2022-10-22T22:33:59.986Z,14.57
2022-10-22T22:36:29.251Z,13.63
2022-10-22T22:38:57.658Z,15.13
2022-10-22T22:41:25.544Z,15.38
2022-10-22T22:43:53.304Z,18.60
2022-10-22T22:46:21.008Z,15.98
2022-10-22T22:48:49.020Z,16.75
2022-10-22T22:51:17.309Z,15.75
2022-10-22T22:53:46.657Z,14.85
2022-10-22T22:56:16.856Z,17.00
2022-10-22T22:58:44.630Z,17.20
2022-10-22T23:01:15.674Z,19.08
2022-10-22T23:06:12.549Z,20.75
2022-10-22T23:08:40.654Z,19.30
2022-10-22T23:11:11.893Z,18.63
2022-10-22T23:13:40.748Z,15.90
2022-10-22T23:16:09.811Z,18.10
2022-10-22T23:18:37.538Z,13.35
2022-10-22T23:21:06.605Z,14.52
2022-10-22T23:23:34.572Z,14.45
2022-10-22T23:26:02.578Z,18.40
2022-10-22T23:28:31.632Z,14.85
2022-10-22T23:30:59.394Z,16.55
2022-10-22T23:33:27.666Z,15.82
2022-10-22T23:35:55.525Z,19.27
2022-10-22T23:38:23.414Z,16.33
2022-10-22T23:40:56.517Z,15.23
2022-10-22T23:43:24.330Z,20.65
2022-10-22T23:45:53.869Z,15.45
2022-10-22T23:48:22.006Z,16.38
2022-10-22T23:50:50.116Z,16.08
2022-10-22T23:53:18.078Z,14.93
2022-10-22T23:55:45.945Z,16.00
2022-10-22T23:58:13.791Z,15.65
